createdAt,value
2023-05-24T00:01:57.275Z,10.30
2023-05-24T00:04:30.128Z,10.30
2023-05-24T00:07:03.445Z,10.30
2023-05-24T00:09:32.144Z,10.20
2023-05-24T00:12:00.495Z,10.30
2023-05-24T00:14:28.733Z,10.30
2023-05-24T00:16:57.471Z,10.40
2023-05-24T00:19:25.899Z,10.40
2023-05-24T00:21:55.840Z,10.40
2023-05-24T00:24:25.642Z,10.50
2023-05-24T00:26:54.361Z,10.50
2023-05-24T00:29:23.005Z,10.50
2023-05-24T00:31:51.254Z,10.50
2023-05-24T00:34:20.026Z,10.40
2023-05-24T00:36:48.270Z,10.40
2023-05-24T00:39:17.324Z,10.40
2023-05-24T00:41:46.868Z,10.40
2023-05-24T00:44:15.322Z,10.30
2023-05-24T00:46:43.653Z,10.30
2023-05-24T00:49:12.302Z,10.20
2023-05-24T00:51:40.543Z,10.20
2023-05-24T00:54:09.480Z,10.20
2023-05-24T00:56:37.814Z,10.20
2023-05-24T00:59:07.975Z,10.20
2023-05-24T01:01:37.366Z,10.20
2023-05-24T01:04:07.524Z,10.10
2023-05-24T01:06:44.927Z,10.10
2023-05-24T01:09:23.889Z,10.00
2023-05-24T01:12:09.009Z,9.90
2023-05-24T01:14:49.112Z,9.90
2023-05-24T01:17:26.616Z,9.80
2023-05-24T01:20:00.019Z,9.80
2023-05-24T01:22:53.386Z,9.70
2023-05-24T01:25:42.487Z,9.70
2023-05-24T01:28:14.192Z,9.80
2023-05-24T01:30:43.831Z,9.90
2023-05-24T01:33:13.076Z,9.90
2023-05-24T01:35:42.654Z,9.90
2023-05-24T01:38:12.211Z,10.00
2023-05-24T01:40:42.168Z,10.00
2023-05-24T01:43:18.940Z,10.00
2023-05-24T01:45:56.034Z,10.00
2023-05-24T01:48:35.035Z,10.00
2023-05-24T01:51:07.842Z,10.00
2023-05-24T01:53:43.205Z,10.10
2023-05-24T01:56:13.381Z,10.10
2023-05-24T01:58:46.007Z,10.10
2023-05-24T02:01:16.007Z,10.00
2023-05-24T02:03:44.676Z,10.00
2023-05-24T02:06:13.261Z,10.00
2023-05-24T02:08:41.714Z,10.10
2023-05-24T02:11:10.305Z,10.10
2023-05-24T02:13:40.084Z,10.10
2023-05-24T02:16:10.808Z,10.10
2023-05-24T02:18:40.244Z,10.10
2023-05-24T02:21:09.055Z,10.10
2023-05-24T02:23:38.863Z,10.10
2023-05-24T02:26:07.594Z,10.00
2023-05-24T02:28:36.585Z,10.10
2023-05-24T02:31:06.237Z,10.10
2023-05-24T02:33:36.314Z,10.00
2023-05-24T02:36:05.161Z,10.00
2023-05-24T02:38:33.837Z,10.00
2023-05-24T02:41:02.463Z,10.10
2023-05-24T02:43:30.877Z,10.00
2023-05-24T02:45:59.503Z,10.10
2023-05-24T02:48:28.098Z,10.00
2023-05-24T02:50:58.071Z,10.00
2023-05-24T02:53:26.799Z,10.00
2023-05-24T02:55:55.322Z,10.00
2023-05-24T02:58:24.072Z,9.90
2023-05-24T03:00:52.875Z,9.90
2023-05-24T03:03:23.048Z,9.90
2023-05-24T03:05:51.615Z,9.90
2023-05-24T03:08:21.187Z,9.90
2023-05-24T03:10:49.950Z,9.90
2023-05-24T03:13:18.455Z,9.90
2023-05-24T03:15:47.427Z,9.80
2023-05-24T03:18:15.784Z,9.80
2023-05-24T03:20:46.163Z,9.80
2023-05-24T03:23:15.015Z,9.80
2023-05-24T03:25:47.142Z,9.80
2023-05-24T03:28:15.860Z,9.80
2023-05-24T03:30:45.759Z,9.70
2023-05-24T03:33:14.049Z,9.80
2023-05-24T03:35:42.842Z,9.70
2023-05-24T03:38:11.628Z,9.70
2023-05-24T03:40:45.539Z,9.70
2023-05-24T03:43:18.546Z,9.60
2023-05-24T03:45:56.278Z,9.60
2023-05-24T03:48:24.590Z,9.60
2023-05-24T03:50:53.905Z,9.60
2023-05-24T03:53:23.447Z,9.60
2023-05-24T03:55:54.097Z,9.70
2023-05-24T03:58:23.654Z,9.70
2023-05-24T04:00:52.382Z,9.80
2023-05-24T04:03:21.386Z,9.80
2023-05-24T04:05:50.035Z,9.90
2023-05-24T04:08:18.753Z,9.90
2023-05-24T04:10:47.043Z,9.90
2023-05-24T04:13:17.079Z,9.90
2023-05-24T04:15:45.467Z,9.90
2023-05-24T04:18:14.055Z,9.90
2023-05-24T04:20:42.442Z,10.00
2023-05-24T04:23:11.586Z,10.00
2023-05-24T04:25:39.858Z,10.00
2023-05-24T04:28:09.312Z,10.00
2023-05-24T04:30:39.282Z,10.00
2023-05-24T04:33:08.408Z,10.00
2023-05-24T04:35:36.776Z,10.00
2023-05-24T04:38:05.833Z,10.10
2023-05-24T04:40:34.037Z,10.10
2023-05-24T04:43:02.832Z,10.10
2023-05-24T04:45:32.902Z,10.20
2023-05-24T04:48:02.920Z,10.20
2023-05-24T04:50:31.376Z,10.20
2023-05-24T04:53:00.007Z,10.30
2023-05-24T04:55:28.204Z,10.20
2023-05-24T04:57:57.132Z,10.20
2023-05-24T05:00:25.388Z,10.30
2023-05-24T05:02:54.088Z,10.30
2023-05-24T05:05:23.870Z,10.30
2023-05-24T05:07:52.519Z,10.30
2023-05-24T05:10:23.091Z,10.30
2023-05-24T05:12:52.473Z,10.20
2023-05-24T05:15:22.308Z,10.20
2023-05-24T05:17:51.180Z,10.20
2023-05-24T05:20:19.893Z,10.20
2023-05-24T05:22:50.792Z,10.30
2023-05-24T05:25:19.128Z,10.30
2023-05-24T05:27:47.524Z,10.40
2023-05-24T05:30:16.275Z,10.60
2023-05-24T05:32:45.125Z,10.70
2023-05-24T05:35:13.495Z,10.80
2023-05-24T05:37:42.454Z,10.90
2023-05-24T05:40:13.317Z,11.00
2023-05-24T05:42:42.214Z,11.10
2023-05-24T05:45:11.062Z,11.20
2023-05-24T05:47:39.667Z,11.40
2023-05-24T05:50:09.145Z,11.50
2023-05-24T05:52:37.837Z,11.70
2023-05-24T05:55:07.440Z,11.70
2023-05-24T05:57:37.509Z,11.80
2023-05-24T06:00:07.107Z,11.80
2023-05-24T06:02:40.231Z,11.80
2023-05-24T06:05:09.616Z,12.00
2023-05-24T06:07:38.829Z,12.10
2023-05-24T06:10:08.670Z,12.20
2023-05-24T06:12:40.530Z,12.20
2023-05-24T06:15:10.210Z,12.30
2023-05-24T06:17:38.789Z,12.30
2023-05-24T06:20:12.213Z,12.50
2023-05-24T06:22:42.677Z,12.50
2023-05-24T06:25:15.440Z,12.70
2023-05-24T06:27:45.314Z,13.10
2023-05-24T06:30:15.037Z,13.20
2023-05-24T06:32:43.684Z,13.30
2023-05-24T06:35:17.545Z,13.40
2023-05-24T06:37:46.156Z,13.50
2023-05-24T06:40:14.839Z,13.50
2023-05-24T06:42:44.451Z,13.60
2023-05-24T06:45:13.656Z,13.60
2023-05-24T06:47:42.040Z,13.50
2023-05-24T06:50:11.031Z,13.50
2023-05-24T06:52:39.602Z,13.60
2023-05-24T06:55:08.745Z,13.60
2023-05-24T06:57:36.925Z,13.70
2023-05-24T07:00:12.321Z,13.70
2023-05-24T07:02:40.637Z,13.80
2023-05-24T07:05:12.269Z,13.90
2023-05-24T07:07:41.226Z,14.00
2023-05-24T07:10:11.053Z,14.00
2023-05-24T07:12:39.980Z,13.90
2023-05-24T07:15:11.376Z,13.70
2023-05-24T07:17:40.114Z,13.60
2023-05-24T07:20:11.374Z,13.60
2023-05-24T07:22:39.589Z,13.50
2023-05-24T07:25:09.266Z,13.40
2023-05-24T07:27:37.753Z,13.50
2023-05-24T07:30:16.456Z,13.70
2023-05-24T07:32:53.814Z,13.90
2023-05-24T07:35:22.794Z,14.40
2023-05-24T07:37:51.018Z,14.90
2023-05-24T07:40:19.750Z,15.20
2023-05-24T07:42:48.331Z,15.50
2023-05-24T07:45:16.856Z,15.70
2023-05-24T07:47:45.437Z,15.80
2023-05-24T07:50:15.086Z,15.50
2023-05-24T07:52:43.239Z,15.20
2023-05-24T07:55:11.729Z,15.20
2023-05-24T07:57:39.901Z,15.10
2023-05-24T08:00:14.389Z,15.10
2023-05-24T08:02:44.275Z,14.90
2023-05-24T08:05:14.663Z,14.90
2023-05-24T08:07:43.068Z,15.10
2023-05-24T08:10:13.640Z,15.00
2023-05-24T08:12:42.236Z,14.80
2023-05-24T08:15:11.935Z,14.80
2023-05-24T08:17:40.684Z,15.00
2023-05-24T08:20:13.750Z,15.40
2023-05-24T08:22:44.048Z,15.30
2023-05-24T08:25:13.083Z,15.20
2023-05-24T08:27:41.463Z,15.10
2023-05-24T08:30:11.228Z,15.40
2023-05-24T08:32:39.851Z,16.00
2023-05-24T08:35:20.193Z,15.90
2023-05-24T08:37:51.664Z,16.00
2023-05-24T08:40:20.426Z,16.00
2023-05-24T08:42:51.155Z,16.20
2023-05-24T08:45:22.522Z,17.40
2023-05-24T08:47:52.812Z,18.50
2023-05-24T08:50:22.488Z,19.10
2023-05-24T08:52:54.040Z,19.00
2023-05-24T08:55:23.427Z,18.90
2023-05-24T08:57:53.150Z,18.80
2023-05-24T09:00:22.407Z,18.50
2023-05-24T09:02:51.819Z,18.10
2023-05-24T09:05:21.990Z,17.60
2023-05-24T09:07:53.642Z,17.10
2023-05-24T09:10:23.645Z,16.70
2023-05-24T09:12:57.989Z,16.60
2023-05-24T09:15:26.666Z,16.60
2023-05-24T09:17:55.113Z,16.90
2023-05-24T09:20:23.645Z,17.40
2023-05-24T09:22:54.786Z,17.90
2023-05-24T09:25:23.938Z,18.20
2023-05-24T09:27:53.554Z,18.10
2023-05-24T09:30:22.727Z,17.70
2023-05-24T09:32:58.755Z,17.40
2023-05-24T09:35:28.221Z,17.00
2023-05-24T09:37:59.925Z,16.70
2023-05-24T09:40:29.912Z,16.60
2023-05-24T09:43:05.859Z,16.40
2023-05-24T09:45:34.811Z,16.30
2023-05-24T09:48:05.510Z,16.40
2023-05-24T09:50:34.359Z,16.60
2023-05-24T09:53:04.264Z,16.60
2023-05-24T09:55:37.937Z,16.60
2023-05-24T09:58:09.013Z,16.70
2023-05-24T10:00:41.322Z,16.70
2023-05-24T10:03:12.605Z,16.70
2023-05-24T10:05:44.006Z,17.00
2023-05-24T10:08:14.464Z,17.70
2023-05-24T10:10:44.460Z,19.00
2023-05-24T10:13:15.901Z,19.90
2023-05-24T10:15:45.545Z,20.20
2023-05-24T10:18:15.062Z,20.30
2023-05-24T10:20:44.089Z,20.20
2023-05-24T10:23:20.605Z,19.90
2023-05-24T10:25:52.357Z,19.70
2023-05-24T10:28:22.648Z,19.30
2023-05-24T10:31:03.317Z,19.20
2023-05-24T10:33:33.672Z,19.00
2023-05-24T10:36:02.418Z,19.20
2023-05-24T10:38:32.039Z,19.80
2023-05-24T10:41:00.706Z,19.80
2023-05-24T10:43:29.177Z,20.00
2023-05-24T10:45:57.657Z,20.60
2023-05-24T10:48:37.571Z,20.40
2023-05-24T10:51:38.895Z,20.40
2023-05-24T10:54:17.597Z,20.30
2023-05-24T10:56:48.481Z,20.10
2023-05-24T10:59:31.663Z,20.10
2023-05-24T11:02:01.364Z,20.10
2023-05-24T11:04:34.248Z,20.00
2023-05-24T11:07:05.020Z,19.80
2023-05-24T11:09:35.071Z,20.00
2023-05-24T11:12:07.951Z,20.10
2023-05-24T11:14:39.448Z,20.30
2023-05-24T11:17:08.994Z,20.40
2023-05-24T11:19:39.381Z,20.20
2023-05-24T11:22:09.832Z,20.30
2023-05-24T11:24:39.553Z,20.20
2023-05-24T11:27:08.799Z,20.20
2023-05-24T11:29:42.576Z,20.10
2023-05-24T11:32:11.625Z,20.10
2023-05-24T11:34:40.635Z,20.30
2023-05-24T11:37:09.412Z,20.50
2023-05-24T11:39:39.808Z,20.40
2023-05-24T11:42:09.512Z,20.60
2023-05-24T11:44:39.194Z,20.50
2023-05-24T11:47:09.115Z,20.80
2023-05-24T11:49:37.680Z,21.30
2023-05-24T11:52:06.436Z,21.80
2023-05-24T11:54:35.058Z,21.90
2023-05-24T11:57:05.549Z,22.40
2023-05-24T11:59:37.798Z,22.60
2023-05-24T12:02:08.043Z,22.80
2023-05-24T12:04:36.743Z,22.30
2023-05-24T12:07:05.646Z,21.50
2023-05-24T12:09:34.421Z,21.00
2023-05-24T12:12:04.056Z,20.30
2023-05-24T12:14:34.923Z,19.70
2023-05-24T12:17:03.217Z,19.30
2023-05-24T12:19:34.800Z,19.50
2023-05-24T12:22:07.494Z,19.90
2023-05-24T12:24:38.822Z,20.40
2023-05-24T12:27:10.035Z,20.60
2023-05-24T12:29:41.236Z,20.50
2023-05-24T12:32:13.906Z,20.10
2023-05-24T12:34:43.979Z,20.10
2023-05-24T12:37:13.669Z,20.20
2023-05-24T12:39:44.527Z,20.30
2023-05-24T12:42:14.567Z,20.70
2023-05-24T12:44:45.099Z,21.00
2023-05-24T12:47:13.509Z,20.80
2023-05-24T12:49:42.070Z,20.70
2023-05-24T12:52:12.455Z,20.90
2023-05-24T12:54:41.136Z,21.70
2023-05-24T12:57:09.795Z,22.40
2023-05-24T12:59:39.729Z,22.70
2023-05-24T13:02:08.495Z,22.30
2023-05-24T13:04:37.145Z,22.40
2023-05-24T13:07:05.779Z,22.70
2023-05-24T13:09:34.366Z,23.00
2023-05-24T13:12:03.157Z,22.50
2023-05-24T13:14:31.811Z,22.10
2023-05-24T13:17:02.087Z,21.60
2023-05-24T13:19:30.710Z,21.00
2023-05-24T13:21:59.362Z,20.90
2023-05-24T13:24:29.119Z,21.10
2023-05-24T13:26:58.339Z,21.30
2023-05-24T13:29:39.324Z,22.10
2023-05-24T13:32:12.701Z,22.20
2023-05-24T13:34:41.305Z,21.50
2023-05-24T13:37:10.007Z,21.10
2023-05-24T13:39:39.274Z,21.10
2023-05-24T13:42:09.130Z,21.10
2023-05-24T13:44:37.899Z,21.10
2023-05-24T13:47:06.752Z,21.10
2023-05-24T13:49:37.908Z,21.00
2023-05-24T13:52:06.584Z,20.80
2023-05-24T13:54:35.953Z,20.50
2023-05-24T13:57:05.207Z,20.20
2023-05-24T13:59:34.363Z,19.80
2023-05-24T14:02:03.058Z,19.50
2023-05-24T14:04:31.814Z,19.50
2023-05-24T14:07:01.801Z,19.40
2023-05-24T14:09:30.478Z,19.30
2023-05-24T14:11:58.951Z,19.20
2023-05-24T14:16:58.791Z,18.70
2023-05-24T14:19:27.386Z,18.60
2023-05-24T14:21:56.145Z,18.50
2023-05-24T14:24:26.061Z,18.30
2023-05-24T14:26:54.649Z,18.30
2023-05-24T14:29:23.014Z,18.20
2023-05-24T14:31:51.726Z,18.40
2023-05-24T14:34:19.992Z,18.70
2023-05-24T14:36:48.779Z,18.90
2023-05-24T14:39:17.268Z,19.00
2023-05-24T14:41:47.370Z,18.60
2023-05-24T14:44:15.898Z,18.30
2023-05-24T14:46:44.817Z,18.10
2023-05-24T14:49:13.375Z,18.10
2023-05-24T14:51:42.089Z,18.20
2023-05-24T14:54:12.679Z,18.20
2023-05-24T14:56:41.698Z,18.30
2023-05-24T14:59:11.447Z,18.40
2023-05-24T15:01:40.223Z,18.40
2023-05-24T15:04:09.183Z,18.20
2023-05-24T15:06:38.774Z,18.00
2023-05-24T15:09:08.089Z,17.80
2023-05-24T15:11:37.770Z,17.70
2023-05-24T15:14:06.466Z,17.60
2023-05-24T15:16:36.377Z,17.70
2023-05-24T15:19:05.263Z,17.90
2023-05-24T15:21:33.609Z,18.10
2023-05-24T15:24:02.230Z,18.10
2023-05-24T15:26:30.670Z,18.00
2023-05-24T15:29:01.158Z,18.00
2023-05-24T15:31:29.862Z,18.10
2023-05-24T15:33:59.984Z,18.00
2023-05-24T15:36:28.631Z,17.90
2023-05-24T15:38:57.195Z,17.80
2023-05-24T15:41:25.430Z,17.70
2023-05-24T15:43:54.049Z,17.50
2023-05-24T15:46:23.187Z,17.30
2023-05-24T15:48:51.923Z,17.20
2023-05-24T15:52:01.614Z,17.30
2023-05-24T15:54:10.270Z,17.30
2023-05-24T15:56:38.842Z,17.40
2023-05-24T15:59:07.612Z,17.30
2023-05-24T16:01:37.128Z,17.20
2023-05-24T16:04:05.879Z,17.20
2023-05-24T16:06:36.687Z,17.00
2023-05-24T16:09:07.147Z,16.80
2023-05-24T16:11:35.766Z,16.80
2023-05-24T16:14:05.544Z,16.60
2023-05-24T16:16:33.880Z,16.50
2023-05-24T16:19:02.543Z,16.50
2023-05-24T16:21:31.163Z,16.60
2023-05-24T16:24:03.395Z,16.60
2023-05-24T16:26:32.182Z,16.60
2023-05-24T16:29:01.733Z,16.50
2023-05-24T16:31:31.896Z,16.40
2023-05-24T16:34:01.070Z,16.40
2023-05-24T16:36:30.006Z,16.30
2023-05-24T16:38:58.493Z,16.20
2023-05-24T16:41:34.580Z,16.10
2023-05-24T16:44:03.102Z,16.00
2023-05-24T16:46:31.628Z,15.80
2023-05-24T16:49:01.027Z,15.70
2023-05-24T16:51:29.584Z,15.60
2023-05-24T16:53:58.150Z,15.50
2023-05-24T16:56:27.735Z,15.40
2023-05-24T16:58:56.736Z,15.40
2023-05-24T17:01:25.338Z,15.30
2023-05-24T17:03:54.226Z,15.30
2023-05-24T17:06:22.583Z,15.20
2023-05-24T17:08:51.206Z,15.10
2023-05-24T17:11:19.913Z,15.00
2023-05-24T17:13:51.217Z,14.90
2023-05-24T17:16:19.498Z,14.80
2023-05-24T17:18:48.222Z,14.80
2023-05-24T17:21:16.716Z,14.70
2023-05-24T17:23:45.247Z,14.70
2023-05-24T17:26:15.447Z,14.60
2023-05-24T17:28:46.203Z,14.60
2023-05-24T17:31:16.823Z,14.60
2023-05-24T17:33:45.417Z,14.60
2023-05-24T17:36:14.366Z,14.60
2023-05-24T17:38:42.591Z,14.60
2023-05-24T17:41:11.793Z,14.70
2023-05-24T17:43:40.592Z,14.70
2023-05-24T17:46:10.306Z,14.70
2023-05-24T17:48:41.136Z,14.80
2023-05-24T17:51:11.604Z,14.80
2023-05-24T17:53:41.089Z,14.80
2023-05-24T17:56:10.064Z,14.70
2023-05-24T17:58:38.374Z,14.70
2023-05-24T18:01:08.624Z,14.60
2023-05-24T18:03:38.287Z,14.60
2023-05-24T18:06:08.827Z,14.50
2023-05-24T18:08:38.930Z,14.50
2023-05-24T18:11:09.555Z,14.50
2023-05-24T18:13:39.234Z,14.50
2023-05-24T18:16:07.950Z,14.40
2023-05-24T18:18:37.935Z,14.40
2023-05-24T18:21:09.559Z,14.30
2023-05-24T18:23:38.855Z,14.20
2023-05-24T18:26:12.091Z,14.20
2023-05-24T18:28:42.469Z,14.10
2023-05-24T18:31:11.426Z,14.00
2023-05-24T18:33:39.843Z,13.90
2023-05-24T18:36:10.540Z,13.80
2023-05-24T18:38:40.158Z,13.70
2023-05-24T18:41:10.156Z,13.60
2023-05-24T18:43:39.161Z,13.50
2023-05-24T18:46:08.955Z,13.40
2023-05-24T18:48:37.360Z,13.40
2023-05-24T18:51:06.626Z,13.30
2023-05-24T18:53:36.903Z,13.20
2023-05-24T18:56:05.866Z,13.20
2023-05-24T18:58:34.174Z,13.10
2023-05-24T19:01:02.738Z,13.00
2023-05-24T19:03:31.013Z,13.00
2023-05-24T19:05:59.787Z,12.90
2023-05-24T19:08:28.056Z,12.80
2023-05-24T19:10:58.098Z,12.80
2023-05-24T19:13:27.516Z,12.70
2023-05-24T19:15:57.906Z,12.60
2023-05-24T19:18:26.560Z,12.60
2023-05-24T19:20:54.919Z,12.50
2023-05-24T19:23:23.574Z,12.40
2023-05-24T19:25:52.199Z,12.40
2023-05-24T19:28:22.117Z,12.30
2023-05-24T19:30:50.608Z,12.20
2023-05-24T19:33:18.806Z,12.20
2023-05-24T19:35:47.033Z,12.10
2023-05-24T19:38:17.714Z,12.10
2023-05-24T19:40:46.632Z,12.10
2023-05-24T19:43:15.172Z,12.00
2023-05-24T19:45:45.366Z,12.00
2023-05-24T19:48:14.134Z,12.00
2023-05-24T19:50:42.787Z,11.90
2023-05-24T19:53:11.250Z,11.90
2023-05-24T19:55:39.763Z,11.70
2023-05-24T19:58:08.357Z,11.60
2023-05-24T20:00:36.827Z,11.60
2023-05-24T20:03:06.868Z,11.50
2023-05-24T20:05:35.526Z,11.50
2023-05-24T20:08:04.024Z,11.40
2023-05-24T20:10:35.655Z,11.30
2023-05-24T20:13:04.906Z,11.30
2023-05-24T20:15:33.526Z,11.20
2023-05-24T20:18:02.160Z,11.20
2023-05-24T20:20:32.463Z,11.20
2023-05-24T20:23:00.976Z,11.10
2023-05-24T20:25:29.330Z,11.10
2023-05-24T20:27:57.870Z,11.00
2023-05-24T20:30:26.758Z,11.00
2023-05-24T20:32:55.484Z,11.00
2023-05-24T20:35:24.107Z,10.90
2023-05-24T20:37:53.635Z,10.90
2023-05-24T20:40:23.979Z,10.90
2023-05-24T20:42:52.583Z,10.90
2023-05-24T20:45:21.502Z,10.90
2023-05-24T20:47:50.030Z,10.90
2023-05-24T20:50:18.729Z,10.90
2023-05-24T20:52:47.245Z,10.90
2023-05-24T20:55:18.780Z,10.80
2023-05-24T20:57:47.864Z,10.80
2023-05-24T21:00:16.753Z,10.80
2023-05-24T21:02:45.481Z,10.70
2023-05-24T21:05:13.743Z,10.80
2023-05-24T21:07:42.310Z,10.70
2023-05-24T21:10:12.861Z,10.70
2023-05-24T21:12:42.762Z,10.60
2023-05-24T21:15:11.578Z,10.50
2023-05-24T21:17:40.566Z,10.50
2023-05-24T21:20:09.537Z,10.40
2023-05-24T21:22:38.047Z,10.30
2023-05-24T21:25:07.834Z,10.30
2023-05-24T21:27:36.056Z,10.30
2023-05-24T21:30:06.219Z,10.20
2023-05-24T21:32:34.511Z,10.20
2023-05-24T21:35:03.061Z,10.10
2023-05-24T21:37:31.580Z,10.10
2023-05-24T21:40:00.106Z,10.10
2023-05-24T21:42:28.396Z,10.20
2023-05-24T21:44:57.005Z,10.20
2023-05-24T21:47:26.959Z,10.20
2023-05-24T21:49:55.810Z,10.20
2023-05-24T21:52:24.620Z,10.20
2023-05-24T21:54:53.111Z,10.10
2023-05-24T21:57:21.637Z,10.10
2023-05-24T21:59:50.333Z,10.00
2023-05-24T22:02:19.206Z,9.90
2023-05-24T22:04:49.573Z,9.90
2023-05-24T22:07:18.095Z,9.90
2023-05-24T22:09:46.948Z,9.90
2023-05-24T22:12:15.140Z,9.80
2023-05-24T22:14:43.813Z,9.80
2023-05-24T22:17:12.025Z,9.70
2023-05-24T22:19:41.269Z,9.70
2023-05-24T22:22:12.403Z,9.70
2023-05-24T22:24:41.015Z,9.70
2023-05-24T22:27:13.821Z,9.70
2023-05-24T22:29:42.364Z,9.70
2023-05-24T22:32:11.189Z,9.60
2023-05-24T22:34:39.768Z,9.60
2023-05-24T22:37:09.992Z,9.60
2023-05-24T22:39:38.239Z,9.60
2023-05-24T22:42:06.972Z,9.50
2023-05-24T22:44:35.118Z,9.50
2023-05-24T22:47:03.305Z,9.50
2023-05-24T22:49:34.157Z,9.50
2023-05-24T22:52:02.942Z,9.40
2023-05-24T22:54:32.556Z,9.30
2023-05-24T22:57:00.968Z,9.30
2023-05-24T22:59:32.426Z,9.20
2023-05-24T23:02:00.988Z,9.20
2023-05-24T23:04:30.093Z,9.10
2023-05-24T23:06:58.328Z,9.10
2023-05-24T23:09:35.251Z,9.10
2023-05-24T23:12:08.450Z,9.10
2023-05-24T23:14:39.332Z,9.10
2023-05-24T23:17:10.391Z,9.10
2023-05-24T23:19:42.655Z,9.00
2023-05-24T23:22:14.074Z,9.00
2023-05-24T23:24:43.353Z,8.90
2023-05-24T23:27:12.867Z,8.90
2023-05-24T23:29:41.435Z,8.90
2023-05-24T23:32:10.552Z,8.80
2023-05-24T23:34:39.618Z,8.80
2023-05-24T23:37:09.061Z,8.80
2023-05-24T23:39:37.579Z,8.90
2023-05-24T23:42:06.681Z,8.90
2023-05-24T23:44:36.352Z,8.90
2023-05-24T23:47:05.233Z,8.90
2023-05-24T23:49:33.792Z,8.80
2023-05-24T23:52:01.975Z,8.80
2023-05-24T23:54:30.159Z,8.70
2023-05-24T23:56:58.654Z,8.70
2023-05-24T23:59:26.849Z,8.70
